Time;durP1;ratioP1;P1;durP2;ratioP2;P2;SDS_P1;SDS_P2;PMS_P1;PMS_P2;Temp;Humidity;BMP_temperature;BMP_pressure;BME280_temperature;BME280_humidity;BME280_pressure;Samples;Min_cycle;Max_cycle;Signal;HPM_P1;HPM_P2
2023/08/10 00:00:53;;;;;;;4.50;2.00;;;14.50;99.90;;;;;;5032977;28;20913;-93
2023/08/10 00:03:19;;;;;;;5.70;2.22;;;14.80;99.90;;;;;;5034334;28;20407;-94
2023/08/10 00:05:45;;;;;;;3.73;2.13;;;14.80;99.90;;;;;;5034493;28;21008;-93
2023/08/10 00:08:10;;;;;;;4.88;1.95;;;14.50;99.90;;;;;;5034389;28;20464;-93
2023/08/10 00:10:37;;;;;;;5.77;2.03;;;14.60;99.90;;;;;;5034679;28;20725;-92
2023/08/10 00:13:03;;;;;;;5.10;2.25;;;14.80;99.90;;;;;;5033294;28;20500;-94
2023/08/10 00:15:29;;;;;;;6.07;2.70;;;14.30;99.90;;;;;;5034910;28;20407;-92
2023/08/10 00:17:55;;;;;;;6.55;3.08;;;14.30;99.90;;;;;;5032612;28;20507;-93
2023/08/10 00:20:21;;;;;;;6.53;3.03;;;14.40;99.90;;;;;;5034512;28;20408;-93
2023/08/10 00:22:47;;;;;;;7.32;3.10;;;14.20;99.90;;;;;;5033257;28;20447;-92
2023/08/10 00:25:12;;;;;;;5.65;2.63;;;14.40;99.90;;;;;;5034081;28;20494;-93
2023/08/10 00:27:38;;;;;;;5.80;2.30;;;14.20;99.90;;;;;;5033652;28;20461;-93
2023/08/10 00:30:06;;;;;;;6.38;2.67;;;14.20;99.90;;;;;;5032955;28;20423;-93
2023/08/10 00:32:31;;;;;;;7.88;2.78;;;13.90;99.90;;;;;;5034379;28;20430;-92
2023/08/10 00:34:57;;;;;;;3.75;2.15;;;14.20;99.90;;;;;;5032728;28;20400;-92
2023/08/10 00:37:23;;;;;;;8.25;3.28;;;14.00;99.90;;;;;;5034573;28;20416;-91
2023/08/10 00:39:49;;;;;;;6.70;2.67;;;14.00;99.90;;;;;;5032525;28;20750;-93
2023/08/10 00:42:14;;;;;;;7.43;3.60;;;14.30;99.90;;;;;;5034203;28;20816;-92
2023/08/10 00:44:40;;;;;;;6.17;3.50;;;13.90;99.90;;;;;;5033517;28;20454;-92
2023/08/10 00:47:07;;;;;;;5.53;3.30;;;13.60;99.90;;;;;;5033199;28;20419;-92
2023/08/10 00:49:33;;;;;;;6.95;3.33;;;14.20;99.90;;;;;;5033996;28;20408;-92
2023/08/10 00:51:59;;;;;;;7.47;3.55;;;13.50;99.90;;;;;;5032485;28;20621;-92
2023/08/10 00:54:24;;;;;;;7.20;3.30;;;13.20;99.90;;;;;;5033809;28;20407;-92
2023/08/10 00:56:50;;;;;;;4.47;2.40;;;13.40;99.90;;;;;;5032578;28;20467;-92
2023/08/10 00:59:16;;;;;;;3.20;2.13;;;13.50;99.90;;;;;;5033991;28;20411;-92
2023/08/10 01:01:44;;;;;;;5.45;3.08;;;13.10;99.90;;;;;;5032694;28;20404;-92
2023/08/10 01:04:10;;;;;;;5.22;3.40;;;13.30;99.90;;;;;;5033245;28;20403;-92
2023/08/10 01:07:00;;;;;;;4.93;3.40;;;13.00;99.90;;;;;;5033010;28;20396;-92
2023/08/10 01:09:49;;;;;;;5.38;3.67;;;13.10;99.90;;;;;;5032606;28;20415;-92
2023/08/10 01:12:44;;;;;;;3.77;3.13;;;12.90;99.90;;;;;;5034005;28;20439;-91
2023/08/10 01:15:49;;;;;;;4.18;3.25;;;12.80;99.90;;;;;;5033594;28;20403;-93
2023/08/10 01:18:25;;;;;;;5.82;3.33;;;12.50;99.90;;;;;;4982908;28;20412;-92
2023/08/10 01:20:53;;;;;;;4.75;3.70;;;12.70;99.90;;;;;;5034161;28;20404;-92
2023/08/10 01:23:40;;;;;;;8.03;4.77;;;13.00;99.90;;;;;;5032398;28;20439;-93
2023/08/10 01:26:06;;;;;;;6.35;4.63;;;12.90;99.90;;;;;;5032675;28;20461;-92
2023/08/10 01:28:33;;;;;;;6.82;4.97;;;12.80;99.90;;;;;;5033113;28;20493;-92
2023/08/10 01:31:00;;;;;;;8.05;4.57;;;12.50;99.90;;;;;;5031774;28;20412;-91
2023/08/10 01:33:27;;;;;;;8.17;4.90;;;12.30;99.90;;;;;;5033267;28;20436;-92
2023/08/10 01:35:53;;;;;;;7.63;5.90;;;12.40;99.90;;;;;;5031613;28;20416;-92
2023/08/10 01:38:19;;;;;;;8.10;5.00;;;12.40;99.90;;;;;;5033536;28;20783;-92
2023/08/10 01:40:47;;;;;;;2.92;2.13;;;12.50;99.90;;;;;;5032026;28;20404;-92
2023/08/10 01:43:13;;;;;;;3.33;3.00;;;12.30;99.90;;;;;;5032274;28;20796;-92
2023/08/10 01:45:43;;;;;;;3.72;2.50;;;12.40;99.90;;;;;;5032906;28;20392;-91
2023/08/10 01:48:17;;;;;;;4.17;3.00;;;12.40;99.90;;;;;;5031906;28;20451;-92
2023/08/10 01:50:45;;;;;;;3.45;2.90;;;12.40;99.90;;;;;;5033154;28;20833;-91
2023/08/10 01:53:17;;;;;;;3.47;2.40;;;12.10;99.90;;;;;;5031158;28;20498;-92
2023/08/10 01:55:43;;;;;;;5.67;3.93;;;12.00;99.90;;;;;;5032214;28;20408;-91
2023/08/10 01:58:08;;;;;;;4.78;3.47;;;12.10;99.90;;;;;;5032317;28;20411;-91
2023/08/10 02:00:37;;;;;;;4.90;4.05;;;12.10;99.90;;;;;;5031852;28;20419;-92
2023/08/10 02:03:05;;;;;;;4.50;3.30;;;11.70;99.90;;;;;;5032480;28;20537;-93
2023/08/10 02:05:32;;;;;;;4.05;2.90;;;12.00;99.90;;;;;;5031246;28;20971;-92
2023/08/10 02:07:58;;;;;;;5.38;3.67;;;12.00;99.90;;;;;;5032997;28;20404;-92
2023/08/10 02:10:23;;;;;;;4.28;3.50;;;12.00;99.90;;;;;;5031412;28;20628;-91
2023/08/10 02:12:49;;;;;;;5.13;3.95;;;12.20;99.90;;;;;;5032638;28;21079;-92
2023/08/10 02:15:15;;;;;;;5.33;3.63;;;12.10;99.90;;;;;;5032046;28;20914;-91
2023/08/10 02:17:41;;;;;;;4.82;3.75;;;12.10;99.90;;;;;;5031534;28;20419;-92
2023/08/10 02:20:12;;;;;;;5.57;3.75;;;12.40;99.90;;;;;;5032288;28;20410;-90
2023/08/10 02:22:49;;;;;;;6.65;4.88;;;12.10;99.90;;;;;;5031142;28;20407;-91
2023/08/10 02:25:15;;;;;;;5.55;4.30;;;12.30;99.90;;;;;;5032569;28;20411;-92
2023/08/10 02:27:42;;;;;;;6.30;4.55;;;12.20;99.90;;;;;;5030467;28;20407;-92
2023/08/10 02:30:09;;;;;;;6.30;5.07;;;12.20;99.90;;;;;;5032157;28;20415;-92
2023/08/10 02:32:36;;;;;;;5.30;4.20;;;12.20;99.90;;;;;;5031326;28;20833;-93
2023/08/10 02:35:04;;;;;;;6.07;4.45;;;12.50;99.90;;;;;;5031327;28;21023;-93
2023/08/10 02:37:30;;;;;;;6.72;3.95;;;12.40;99.90;;;;;;5031687;28;20399;-93
2023/08/10 02:39:56;;;;;;;4.85;3.60;;;12.40;99.90;;;;;;5030767;28;20403;-91
2023/08/10 02:42:21;;;;;;;5.53;3.70;;;12.50;99.90;;;;;;5032599;28;20446;-92
2023/08/10 02:44:49;;;;;;;5.55;4.45;;;12.60;99.90;;;;;;5030386;28;20396;-91
2023/08/10 02:47:15;;;;;;;6.70;4.05;;;13.00;99.90;;;;;;5032357;28;20419;-92
2023/08/10 02:49:41;;;;;;;4.50;3.45;;;13.20;99.90;;;;;;5030754;28;20406;-92
2023/08/10 02:52:06;;;;;;;5.15;3.78;;;12.40;99.90;;;;;;5030707;28;20884;-92
2023/08/10 02:54:32;;;;;;;6.93;4.72;;;12.90;99.90;;;;;;5031640;28;20453;-93
2023/08/10 02:56:58;;;;;;;6.53;3.40;;;12.70;99.90;;;;;;5030898;28;20479;-92
2023/08/10 02:59:24;;;;;;;9.57;5.80;;;12.80;99.90;;;;;;5032192;28;20933;-92
2023/08/10 03:01:50;;;;;;;8.77;5.95;;;12.80;99.90;;;;;;5030338;28;20522;-94
2023/08/10 03:04:16;;;;;;;7.07;4.47;;;12.90;99.90;;;;;;5032170;28;20412;-92
2023/08/10 03:06:42;;;;;;;7.45;6.32;;;12.90;99.90;;;;;;5030392;28;20410;-93
2023/08/10 03:09:08;;;;;;;6.63;4.60;;;13.40;99.90;;;;;;5031584;28;20404;-93
2023/08/10 03:11:34;;;;;;;7.70;5.00;;;13.10;99.90;;;;;;5030986;28;20870;-92
2023/08/10 03:13:59;;;;;;;6.20;4.20;;;13.30;99.90;;;;;;5031188;28;20396;-93
2023/08/10 03:16:25;;;;;;;8.00;5.00;;;13.30;99.90;;;;;;5031623;28;21002;-94
2023/08/10 03:18:51;;;;;;;7.95;5.50;;;13.10;99.90;;;;;;5030411;28;20408;-93
2023/08/10 03:21:17;;;;;;;7.13;4.18;;;13.60;99.90;;;;;;5031826;28;20406;-92
2023/08/10 03:23:43;;;;;;;7.78;4.15;;;13.40;99.90;;;;;;5029910;28;20868;-93
2023/08/10 03:26:09;;;;;;;5.70;4.65;;;13.40;99.90;;;;;;5032048;28;20400;-93
2023/08/10 03:28:36;;;;;;;7.00;6.10;;;13.50;99.90;;;;;;5030743;28;20972;-92
2023/08/10 03:31:02;;;;;;;6.43;5.10;;;13.90;99.90;;;;;;5032899;28;20484;-93
2023/08/10 03:33:28;;;;;;;7.63;4.70;;;13.10;99.90;;;;;;5034608;28;20485;-94
2023/08/10 03:35:54;;;;;;;7.40;4.80;;;13.40;99.90;;;;;;5034468;28;20886;-93
2023/08/10 03:38:20;;;;;;;7.65;5.70;;;13.40;99.90;;;;;;5035010;28;20433;-93
2023/08/10 03:40:45;;;;;;;6.47;5.70;;;13.40;99.90;;;;;;5033232;28;20464;-93
2023/08/10 03:43:11;;;;;;;8.57;5.47;;;13.70;99.90;;;;;;5035200;28;20902;-93
2023/08/10 03:45:37;;;;;;;7.90;5.40;;;13.50;99.90;;;;;;5033590;28;20404;-92
2023/08/10 03:48:03;;;;;;;7.63;6.13;;;13.20;99.90;;;;;;5034887;28;20410;-92
2023/08/10 03:50:29;;;;;;;8.63;6.10;;;13.40;99.90;;;;;;5034427;28;20412;-93
2023/08/10 03:52:55;;;;;;;7.10;5.80;;;13.50;99.90;;;;;;5033891;28;20495;-93
2023/08/10 03:55:21;;;;;;;10.00;6.55;;;13.60;99.90;;;;;;5034616;28;20491;-91
2023/08/10 03:57:47;;;;;;;7.25;5.25;;;13.50;99.90;;;;;;5033737;28;20408;-92
2023/08/10 04:00:14;;;;;;;7.13;6.07;;;13.70;99.90;;;;;;5035292;28;20427;-92
2023/08/10 04:02:39;;;;;;;8.65;6.53;;;13.40;99.90;;;;;;5033169;28;20408;-92
2023/08/10 04:05:08;;;;;;;8.57;6.72;;;14.20;99.90;;;;;;5035024;28;20482;-92
2023/08/10 04:07:33;;;;;;;12.82;8.65;;;13.50;99.90;;;;;;5033668;28;20983;-93
2023/08/10 04:10:00;;;;;;;8.45;6.40;;;13.70;99.90;;;;;;5034289;28;20407;-93
2023/08/10 04:12:27;;;;;;;8.32;6.22;;;13.40;99.90;;;;;;5034286;28;20420;-91
2023/08/10 04:14:53;;;;;;;8.02;6.72;;;13.80;99.90;;;;;;5033040;28;20411;-93
2023/08/10 04:17:19;;;;;;;8.23;6.25;;;13.60;99.90;;;;;;5034382;28;20454;-93
2023/08/10 04:19:44;;;;;;;8.27;6.83;;;13.70;99.90;;;;;;5032313;28;20422;-92
2023/08/10 04:22:10;;;;;;;10.50;8.00;;;13.80;99.90;;;;;;5034216;28;20483;-93
2023/08/10 04:24:36;;;;;;;8.82;6.68;;;13.80;99.90;;;;;;5033222;28;20446;-93
2023/08/10 04:27:02;;;;;;;10.98;7.47;;;13.80;99.90;;;;;;5033546;28;20460;-92
2023/08/10 04:29:28;;;;;;;8.35;6.40;;;13.50;99.90;;;;;;5030337;28;20443;-93
2023/08/10 04:31:54;;;;;;;8.43;6.60;;;13.70;99.90;;;;;;5031200;28;20429;-91
2023/08/10 04:34:20;;;;;;;6.93;5.13;;;13.70;99.90;;;;;;5033658;28;20445;-92
2023/08/10 04:36:46;;;;;;;9.93;7.38;;;13.90;99.90;;;;;;5032570;28;20495;-92
2023/08/10 04:39:20;;;;;;;7.90;6.43;;;13.90;99.90;;;;;;5032272;28;20770;-94
2023/08/10 04:41:48;;;;;;;7.53;5.50;;;13.90;99.90;;;;;;5031736;28;20406;-92
2023/08/10 04:44:14;;;;;;;7.73;6.30;;;13.70;99.90;;;;;;5033647;28;21212;-95
2023/08/10 04:46:40;;;;;;;7.47;6.55;;;13.80;99.90;;;;;;5032563;28;20482;-94
2023/08/10 04:49:05;;;;;;;10.25;7.10;;;13.70;99.90;;;;;;5031935;28;21444;-93
2023/08/10 04:51:51;;;;;;;8.70;6.90;;;13.80;99.90;;;;;;5033190;28;20457;-95
2023/08/10 04:54:17;;;;;;;7.37;6.20;;;13.80;99.90;;;;;;5031469;28;20411;-92
2023/08/10 04:56:43;;;;;;;7.53;6.70;;;14.10;99.90;;;;;;5051563;28;20414;-93
2023/08/10 04:59:08;;;;;;;9.85;6.93;;;14.00;99.90;;;;;;5050886;28;20834;-94
2023/08/10 05:01:34;;;;;;;7.97;6.00;;;14.20;99.90;;;;;;5034128;28;20407;-93
2023/08/10 05:04:00;;;;;;;9.65;7.05;;;14.00;99.90;;;;;;5032463;28;21187;-92
2023/08/10 05:06:28;;;;;;;10.13;6.72;;;14.10;99.90;;;;;;5033284;28;20408;-95
2023/08/10 05:09:00;;;;;;;8.32;6.72;;;14.40;99.90;;;;;;5033521;28;20404;-94
2023/08/10 05:11:25;;;;;;;12.43;7.38;;;14.20;99.90;;;;;;5031871;28;20415;-94
2023/08/10 05:13:53;;;;;;;9.05;6.25;;;14.30;99.90;;;;;;5033419;28;20416;-95
2023/08/10 05:17:08;;;;;;;8.63;6.13;;;14.40;99.90;;;;;;5031059;28;20408;-94
2023/08/10 05:19:25;;;;;;;11.53;6.43;;;14.50;99.90;;;;;;5040172;28;20470;-94
2023/08/10 05:21:51;;;;;;;10.07;5.70;;;14.60;99.90;;;;;;5031943;28;20765;-93
2023/08/10 05:24:16;;;;;;;8.70;4.57;;;14.80;99.90;;;;;;5032478;28;20450;-93
2023/08/10 05:26:42;;;;;;;8.83;5.63;;;14.70;99.90;;;;;;5032920;28;20407;-94
2023/08/10 05:29:10;;;;;;;7.28;5.50;;;15.10;99.90;;;;;;5027792;28;20406;-94
2023/08/10 05:32:17;;;;;;;6.78;4.88;;;15.00;99.90;;;;;;5029670;28;20484;-95
2023/08/10 05:34:48;;;;;;;8.30;4.33;;;14.90;99.90;;;;;;5022723;28;20409;-94
2023/08/10 05:37:13;;;;;;;11.10;4.05;;;15.60;99.90;;;;;;5029817;28;20649;-94
2023/08/10 05:39:39;;;;;;;7.95;4.55;;;15.30;99.90;;;;;;5023362;28;20539;-94
2023/08/10 05:42:05;;;;;;;7.30;3.93;;;15.80;99.90;;;;;;5029642;28;20406;-93
2023/08/10 05:44:31;;;;;;;10.27;3.70;;;15.60;99.90;;;;;;5029626;28;20432;-94
2023/08/10 05:46:57;;;;;;;8.83;3.67;;;15.50;99.90;;;;;;5028498;28;20414;-94
2023/08/10 05:49:22;;;;;;;5.80;3.00;;;15.70;99.90;;;;;;5029840;28;20769;-94
2023/08/10 05:51:48;;;;;;;8.83;3.90;;;15.70;99.90;;;;;;5027691;28;20828;-94
2023/08/10 05:54:14;;;;;;;9.40;3.97;;;16.30;99.90;;;;;;5028813;28;20454;-94
2023/08/10 05:56:40;;;;;;;6.55;3.30;;;16.10;99.90;;;;;;5024794;28;20414;-92
2023/08/10 05:59:06;;;;;;;4.77;3.13;;;16.20;99.90;;;;;;5029470;28;20497;-94
2023/08/10 06:01:31;;;;;;;7.93;3.10;;;16.10;99.90;;;;;;5028916;28;21282;-93
2023/08/10 06:03:59;;;;;;;6.10;3.20;;;16.00;99.90;;;;;;5028249;28;20409;-94
2023/08/10 06:06:25;;;;;;;6.25;2.85;;;16.10;99.90;;;;;;5029094;28;20465;-92
2023/08/10 06:08:51;;;;;;;5.60;2.77;;;16.10;99.90;;;;;;5028236;28;20788;-94
2023/08/10 06:11:22;;;;;;;7.83;2.30;;;16.60;99.90;;;;;;5029914;28;20437;-94
2023/08/10 06:14:30;;;;;;;;;;;;;;;;;;;;;
2023/08/10 06:21:27;;;;;;;;;;;;;;;;;;;;;
2023/08/10 06:28:53;;;;;;;3.30;0.90;;;17.00;99.90;;;;;;4852878;29;20462;-94
2023/08/10 06:31:29;;;;;;;4.30;1.00;;;17.40;99.90;;;;;;4835078;29;20919;-94
2023/08/10 06:33:55;;;;;;;4.50;0.88;;;17.60;99.90;;;;;;4936888;28;20481;-94
2023/08/10 06:36:21;;;;;;;5.40;0.90;;;17.80;99.90;;;;;;5008153;28;20891;-94
2023/08/10 06:38:47;;;;;;;4.47;0.50;;;17.80;99.90;;;;;;5007605;28;20414;-95
2023/08/10 06:41:13;;;;;;;4.40;0.85;;;18.30;99.90;;;;;;5008483;28;20433;-93
2023/08/10 06:43:39;;;;;;;3.93;0.60;;;18.20;99.90;;;;;;5007271;28;20896;-94
2023/08/10 06:46:04;;;;;;;6.60;0.98;;;18.40;99.90;;;;;;5008791;28;20469;-94
2023/08/10 06:48:30;;;;;;;5.47;0.50;;;18.70;99.90;;;;;;5006701;28;20506;-94
2023/08/10 06:50:57;;;;;;;3.50;0.50;;;18.80;99.90;;;;;;5008343;28;20422;-93
2023/08/10 06:53:23;;;;;;;5.70;0.50;;;19.00;99.90;;;;;;5007185;28;20462;-94
2023/08/10 06:55:50;;;;;;;4.95;0.50;;;18.90;99.90;;;;;;5007728;28;20415;-93
2023/08/10 06:58:17;;;;;;;5.03;0.60;;;18.70;99.90;;;;;;5007777;28;20407;-94
2023/08/10 07:00:43;;;;;;;3.25;0.40;;;18.90;99.90;;;;;;5006682;28;20411;-95
2023/08/10 07:03:08;;;;;;;4.00;0.40;;;18.60;99.90;;;;;;5008413;28;20434;-93
2023/08/10 07:05:38;;;;;;;4.07;0.50;;;18.60;99.90;;;;;;5009942;28;20902;-94
2023/08/10 07:08:04;;;;;;;2.40;0.30;;;19.10;99.90;;;;;;5012308;28;20508;-93
2023/08/10 07:10:30;;;;;;;3.53;0.50;;;18.50;99.90;;;;;;5010956;28;20403;-93
2023/08/10 07:12:55;;;;;;;5.30;0.40;;;18.80;99.90;;;;;;5011404;28;20953;-94
2023/08/10 07:15:21;;;;;;;4.80;0.30;;;18.60;99.90;;;;;;5011424;28;20403;-93
2023/08/10 07:17:47;;;;;;;3.85;0.60;;;18.70;99.90;;;;;;5010844;28;20424;-94
2023/08/10 07:20:16;;;;;;;3.43;0.50;;;18.60;99.90;;;;;;5012535;28;20403;-94
2023/08/10 07:22:45;;;;;;;4.60;0.50;;;18.70;99.90;;;;;;5010136;28;20414;-93
2023/08/10 07:25:20;;;;;;;3.87;0.50;;;18.80;99.90;;;;;;5012770;28;20477;-94
2023/08/10 07:27:46;;;;;;;5.00;0.70;;;18.70;99.90;;;;;;5010362;28;20958;-94
2023/08/10 07:30:16;;;;;;;4.25;0.30;;;18.60;99.90;;;;;;5014927;28;20475;-94
2023/08/10 07:32:44;;;;;;;3.65;0.40;;;18.60;99.90;;;;;;5015026;28;21267;-94
2023/08/10 07:35:10;;;;;;;3.22;0.50;;;18.80;99.90;;;;;;5013927;28;20397;-94
2023/08/10 07:37:39;;;;;;;4.65;0.50;;;18.90;99.90;;;;;;5015093;28;20405;-94
2023/08/10 07:40:06;;;;;;;4.85;0.65;;;18.90;99.90;;;;;;5013318;28;20409;-95
2023/08/10 07:42:31;;;;;;;3.13;0.40;;;18.70;99.90;;;;;;5015131;28;20780;-94
2023/08/10 07:44:57;;;;;;;4.68;0.47;;;18.90;99.90;;;;;;5013680;28;20408;-94
2023/08/10 07:47:23;;;;;;;3.80;0.40;;;18.70;99.90;;;;;;5014583;28;20463;-93
2023/08/10 07:49:49;;;;;;;4.30;0.50;;;18.70;99.90;;;;;;5013964;28;20429;-94
2023/08/10 07:52:15;;;;;;;3.05;0.50;;;19.00;99.90;;;;;;5013753;28;20956;-94
2023/08/10 07:54:40;;;;;;;2.50;0.33;;;18.90;99.90;;;;;;5014706;28;20417;-95
2023/08/10 07:57:08;;;;;;;4.10;0.40;;;19.10;99.90;;;;;;5013341;28;20401;-94
2023/08/10 07:59:34;;;;;;;3.90;0.47;;;19.00;99.90;;;;;;5015143;28;20442;-94
2023/08/10 08:02:00;;;;;;;3.93;0.60;;;19.30;99.90;;;;;;5013471;28;20409;-94
2023/08/10 08:04:28;;;;;;;3.85;0.50;;;19.20;99.90;;;;;;5014347;28;20923;-94
2023/08/10 08:06:54;;;;;;;3.75;0.30;;;18.90;99.90;;;;;;5013491;28;20776;-93
2023/08/10 08:09:20;;;;;;;3.45;0.20;;;19.60;99.90;;;;;;5014016;28;20416;-95
2023/08/10 08:11:46;;;;;;;4.32;0.40;;;19.70;99.90;;;;;;5013232;28;20465;-94
2023/08/10 08:14:15;;;;;;;3.90;0.30;;;19.30;97.70;;;;;;5013828;28;20417;-95
2023/08/10 08:16:43;;;;;;;3.50;0.30;;;19.50;99.90;;;;;;5013416;28;20780;-95
2023/08/10 08:19:11;;;;;;;3.40;0.30;;;19.30;99.90;;;;;;5012804;28;20978;-94
2023/08/10 08:21:37;;;;;;;3.22;0.30;;;20.00;99.90;;;;;;5014140;28;20421;-94
2023/08/10 08:24:06;;;;;;;3.50;0.30;;;19.20;99.90;;;;;;5031223;28;20398;-94
2023/08/10 08:27:19;;;;;;;4.10;0.30;;;19.20;99.90;;;;;;5035230;28;20404;-95
2023/08/10 08:30:29;;;;;;;;;;;;;;;;;;;;;
2023/08/10 08:37:28;;;;;;;3.75;0.40;;;19.30;99.90;;;;;;4959361;28;20448;-94
2023/08/10 08:40:41;;;;;;;5.47;0.40;;;19.40;99.90;;;;;;4986684;28;20417;-95
2023/08/10 08:43:13;;;;;;;3.35;0.40;;;19.40;99.90;;;;;;5010255;28;20767;-95
2023/08/10 08:46:15;;;;;;;;;;;;;;;;;;;;;
2023/08/10 08:49:06;;;;;;;3.03;0.30;;;19.40;99.90;;;;;;5024964;28;20411;-95
2023/08/10 08:51:35;;;;;;;2.83;0.40;;;19.40;99.90;;;;;;5009956;28;20407;-94
2023/08/10 08:54:01;;;;;;;4.93;0.30;;;19.70;99.90;;;;;;5009294;28;20403;-93
2023/08/10 08:56:43;;;;;;;;;;;;;;;;;;;;;
2023/08/10 08:59:26;;;;;;;3.60;0.75;;;19.70;99.90;;;;;;5025651;28;20415;-95
2023/08/10 09:02:19;;;;;;;2.83;0.40;;;19.70;99.90;;;;;;5007764;28;20418;-95
2023/08/10 09:04:48;;;;;;;3.70;0.40;;;19.60;99.90;;;;;;5010045;28;20449;-94
2023/08/10 09:07:39;;;;;;;;;;;;;;;;;;;;;
2023/08/10 09:10:15;;;;;;;3.72;0.35;;;19.80;99.90;;;;;;5037255;28;20904;-94
2023/08/10 09:12:43;;;;;;;3.03;0.40;;;19.70;99.90;;;;;;5024217;28;20463;-94
2023/08/10 09:15:18;;;;;;;3.58;0.40;;;19.50;99.90;;;;;;5008613;28;20395;-94
2023/08/10 09:17:51;;;;;;;3.28;0.40;;;19.50;99.90;;;;;;5009259;28;20432;-95
2023/08/10 09:20:28;;;;;;;3.63;0.57;;;19.50;99.90;;;;;;5010374;28;20419;-95
2023/08/10 09:23:08;;;;;;;;;;;;;;;;;;;;;
2023/08/10 09:31:08;;;;;;;;;;;;;;;;;;;;;
2023/08/10 09:33:43;;;;;;;3.05;0.30;;;19.10;99.90;;;;;;4890231;29;20651;-95
2023/08/10 09:43:41;;;;;;;2.85;0.50;;;19.40;99.90;;;;;;4802969;29;20424;-94
2023/08/10 09:56:45;;;;;;;4.97;0.80;;;19.50;99.90;;;;;;5259122;22;20959;-95
2023/08/10 09:59:13;;;;;;;5.17;0.73;;;19.60;99.90;;;;;;5029052;28;20477;-93
2023/08/10 10:01:40;;;;;;;3.85;0.77;;;20.00;98.00;;;;;;5033504;28;20999;-94
2023/08/10 10:04:37;;;;;;;3.42;0.90;;;20.00;99.90;;;;;;5028330;28;20439;-95
2023/08/10 10:08:03;;;;;;;5.57;0.80;;;19.90;99.20;;;;;;5030308;28;20426;-94
2023/08/10 10:14:19;;;;;;;4.07;0.80;;;20.60;99.90;;;;;;4927195;28;20584;-95
2023/08/10 10:17:41;;;;;;;;;;;;;;;;;;;;;
2023/08/10 10:20:20;;;;;;;5.78;1.10;;;21.10;96.10;;;;;;4984401;28;20915;-95
2023/08/10 10:24:05;;;;;;;;;;;;;;;;;;;;;
2023/08/10 10:27:08;;;;;;;3.70;0.60;;;21.40;95.20;;;;;;4927686;29;20420;-95
2023/08/10 10:37:53;;;;;;;3.97;0.63;;;21.80;88.40;;;;;;4956503;28;21016;-94
2023/08/10 10:45:00;;;;;;;4.50;0.60;;;21.40;79.40;;;;;;4960452;28;20430;-95
2023/08/10 10:48:55;;;;;;;;;;;;;;;;;;;;;
2023/08/10 10:59:14;;;;;;;3.10;0.50;;;21.30;86.90;;;;;;4834310;29;20509;-93
2023/08/10 11:50:59;;;;;;;3.67;1.30;;;21.20;95.30;;;;;;5054768;27;2026795;-90
2023/08/10 11:53:32;;;;;;;3.85;0.85;;;21.10;92.60;;;;;;5067914;28;20437;-89
2023/08/10 11:55:59;;;;;;;2.92;1.10;;;21.30;99.90;;;;;;5084643;28;20436;-89
2023/08/10 11:58:31;;;;;;;4.65;1.60;;;21.20;99.90;;;;;;5085390;28;20426;-90
2023/08/10 12:01:00;;;;;;;5.68;1.55;;;21.20;92.40;;;;;;5066955;28;20405;-90
2023/08/10 12:03:27;;;;;;;5.22;1.27;;;21.10;99.90;;;;;;5085675;28;20405;-89
2023/08/10 12:05:59;;;;;;;3.70;1.30;;;21.20;98.80;;;;;;5067060;28;20395;-89
2023/08/10 12:08:30;;;;;;;5.07;2.00;;;21.20;99.90;;;;;;5068264;28;20660;-89
2023/08/10 12:11:04;;;;;;;5.78;1.55;;;20.90;94.80;;;;;;5085200;28;20922;-89
2023/08/10 12:13:30;;;;;;;5.80;1.20;;;20.90;99.90;;;;;;5067693;28;20421;-89
2023/08/10 12:15:58;;;;;;;4.65;2.05;;;20.90;99.90;;;;;;5068437;28;20501;-88
2023/08/10 12:18:24;;;;;;;2.97;1.20;;;20.80;99.90;;;;;;5083804;28;20625;-90
2023/08/10 12:20:51;;;;;;;3.20;0.88;;;20.80;99.90;;;;;;5068036;28;20676;-88
2023/08/10 12:23:17;;;;;;;4.55;1.77;;;20.80;99.90;;;;;;5083763;28;20445;-89
2023/08/10 12:25:44;;;;;;;5.13;1.83;;;20.90;99.90;;;;;;5084844;28;20480;-90
2023/08/10 12:28:11;;;;;;;3.25;1.25;;;20.80;99.90;;;;;;5084298;28;20910;-89
2023/08/10 12:30:37;;;;;;;5.03;1.50;;;20.70;99.90;;;;;;5067110;28;20509;-89
2023/08/10 12:33:03;;;;;;;3.60;1.23;;;20.70;99.90;;;;;;5068207;28;20482;-89
2023/08/10 12:35:29;;;;;;;3.05;1.15;;;20.60;99.90;;;;;;5083476;28;20778;-89
2023/08/10 12:37:55;;;;;;;4.10;1.30;;;20.70;99.90;;;;;;5085176;28;20898;-90
2023/08/10 12:40:21;;;;;;;4.57;1.90;;;20.50;99.90;;;;;;5083200;28;20429;-89
2023/08/10 12:42:47;;;;;;;4.13;1.93;;;20.80;99.90;;;;;;5067822;28;20424;-89
2023/08/10 12:45:14;;;;;;;6.73;2.23;;;20.50;99.90;;;;;;5084001;28;20417;-90
2023/08/10 12:47:41;;;;;;;3.60;2.00;;;20.70;99.90;;;;;;5084190;28;20971;-89
2023/08/10 12:50:08;;;;;;;3.63;1.40;;;20.50;99.90;;;;;;5076940;28;20412;-89
2023/08/10 12:52:34;;;;;;;3.22;1.77;;;20.50;99.90;;;;;;5049747;28;20779;-89
2023/08/10 12:55:01;;;;;;;4.95;2.40;;;20.60;99.90;;;;;;5068012;28;20471;-89
2023/08/10 12:57:27;;;;;;;4.97;2.07;;;20.90;99.90;;;;;;5049837;28;20404;-90
2023/08/10 12:59:53;;;;;;;4.40;1.90;;;20.90;99.90;;;;;;5051298;28;20499;-90
2023/08/10 13:02:19;;;;;;;4.20;2.13;;;21.10;99.90;;;;;;5067012;28;20553;-89
2023/08/10 13:04:46;;;;;;;4.45;2.40;;;21.20;99.90;;;;;;5050241;28;20412;-89
2023/08/10 13:07:12;;;;;;;6.70;2.33;;;21.40;99.90;;;;;;5051292;28;20415;-89
2023/08/10 13:09:37;;;;;;;4.47;2.40;;;21.50;99.90;;;;;;5066352;28;20400;-89
2023/08/10 13:12:03;;;;;;;4.78;2.40;;;21.80;99.90;;;;;;5067199;28;20400;-90
2023/08/10 13:14:29;;;;;;;5.20;2.90;;;21.70;99.90;;;;;;5048889;28;20495;-90
2023/08/10 13:16:55;;;;;;;5.30;2.80;;;21.90;92.80;;;;;;5067770;28;20526;-89
2023/08/10 13:19:20;;;;;;;8.05;3.17;;;22.00;92.60;;;;;;5066015;28;20439;-90
2023/08/10 13:21:46;;;;;;;5.55;2.92;;;22.10;92.20;;;;;;5066798;28;20404;-89
2023/08/10 13:24:12;;;;;;;6.07;3.40;;;22.40;88.40;;;;;;5050261;28;20801;-90
2023/08/10 13:26:38;;;;;;;3.90;2.60;;;22.40;82.10;;;;;;5066210;28;20487;-90
2023/08/10 13:29:03;;;;;;;5.63;3.00;;;22.80;91.10;;;;;;5050326;28;20404;-89
2023/08/10 13:31:29;;;;;;;5.88;3.30;;;22.50;85.80;;;;;;5065863;28;20431;-89
2023/08/10 13:33:54;;;;;;;5.18;2.95;;;22.60;78.50;;;;;;5050448;28;20456;-89
2023/08/10 13:36:20;;;;;;;5.83;2.90;;;22.70;79.50;;;;;;5049127;28;20761;-89
2023/08/10 13:38:46;;;;;;;6.95;2.80;;;22.90;84.60;;;;;;5050462;28;20951;-90
2023/08/10 13:41:11;;;;;;;5.83;2.73;;;22.70;82.50;;;;;;5065386;28;20403;-89
2023/08/10 13:43:37;;;;;;;5.03;2.93;;;22.50;89.30;;;;;;5066187;28;20400;-90
2023/08/10 13:46:03;;;;;;;6.35;2.60;;;22.40;85.30;;;;;;5049974;28;20404;-90
2023/08/10 13:48:28;;;;;;;5.50;2.80;;;22.50;91.10;;;;;;5049484;28;20431;-89
2023/08/10 13:50:54;;;;;;;4.75;2.30;;;22.20;93.50;;;;;;5049414;28;20407;-89
2023/08/10 13:53:20;;;;;;;5.55;3.55;;;22.10;97.10;;;;;;5048568;28;20438;-89
2023/08/10 13:55:46;;;;;;;3.53;1.90;;;21.90;91.00;;;;;;5066851;28;20423;-90
2023/08/10 13:58:11;;;;;;;6.57;2.78;;;22.10;99.90;;;;;;5048522;28;20399;-88
2023/08/10 14:00:38;;;;;;;4.40;2.42;;;21.70;99.90;;;;;;5049801;28;20470;-89
2023/08/10 14:03:04;;;;;;;4.20;2.55;;;21.50;99.90;;;;;;5065118;28;20480;-89
2023/08/10 14:05:31;;;;;;;5.50;2.23;;;21.50;99.90;;;;;;5065383;28;20878;-89
2023/08/10 14:07:57;;;;;;;5.45;2.50;;;21.80;99.90;;;;;;5066502;28;20450;-90
2023/08/10 14:10:22;;;;;;;4.60;2.70;;;21.50;99.90;;;;;;5048566;28;20900;-89
2023/08/10 14:12:48;;;;;;;5.15;2.83;;;21.40;99.90;;;;;;5050035;28;20474;-90
2023/08/10 14:15:14;;;;;;;5.00;2.53;;;21.50;99.90;;;;;;5048273;28;20420;-88
2023/08/10 14:17:39;;;;;;;5.40;2.90;;;21.50;99.90;;;;;;5049511;28;20399;-90
2023/08/10 14:20:08;;;;;;;4.43;2.40;;;21.50;99.90;;;;;;5048474;28;20435;-89
2023/08/10 14:22:35;;;;;;;4.65;2.70;;;21.40;99.90;;;;;;5048887;28;20923;-89
2023/08/10 14:25:02;;;;;;;5.63;3.15;;;21.40;99.90;;;;;;5049336;28;20427;-90
2023/08/10 14:27:27;;;;;;;6.18;3.35;;;21.50;99.90;;;;;;5048295;28;20404;-89
2023/08/10 14:29:53;;;;;;;6.50;3.30;;;21.30;99.90;;;;;;5049778;28;20471;-90
2023/08/10 14:32:19;;;;;;;4.95;2.78;;;21.30;99.90;;;;;;5064551;28;20432;-89
2023/08/10 14:34:44;;;;;;;5.60;3.67;;;21.20;99.90;;;;;;5066226;28;20457;-91
2023/08/10 14:37:10;;;;;;;7.40;3.70;;;21.40;99.90;;;;;;5065379;28;20396;-89
2023/08/10 14:39:35;;;;;;;5.27;2.97;;;21.50;99.90;;;;;;5048613;28;20438;-90
2023/08/10 14:42:01;;;;;;;5.57;3.33;;;21.20;99.90;;;;;;5065281;28;20404;-89
2023/08/10 14:44:26;;;;;;;6.78;3.45;;;21.50;99.90;;;;;;5048242;28;20411;-89
2023/08/10 14:46:52;;;;;;;5.53;2.90;;;21.50;99.90;;;;;;5049372;28;20449;-89
2023/08/10 14:49:18;;;;;;;6.47;3.60;;;21.10;99.90;;;;;;5047519;28;20467;-90
2023/08/10 14:51:44;;;;;;;4.75;3.33;;;21.10;99.90;;;;;;5065980;28;20407;-90
2023/08/10 14:54:10;;;;;;;7.28;4.00;;;21.00;99.90;;;;;;5047616;28;20408;-89
2023/08/10 14:56:36;;;;;;;8.63;4.53;;;21.00;99.90;;;;;;5048659;28;20919;-90
2023/08/10 14:59:01;;;;;;;7.00;3.67;;;20.90;99.90;;;;;;5047804;28;20848;-89
2023/08/10 15:01:27;;;;;;;6.17;3.20;;;20.90;99.90;;;;;;5048296;28;20475;-89